createdAt,value
2019-05-13T00:00:46.666Z,5.22
2019-05-13T00:03:15.454Z,5.83
2019-05-13T00:08:14.226Z,8.83
2019-05-13T00:10:44.033Z,4.70
2019-05-13T00:13:14.808Z,3.95
2019-05-13T00:15:44.301Z,5.70
2019-05-13T00:18:14.335Z,5.97
2019-05-13T00:20:44.280Z,3.47
2019-05-13T00:23:14.313Z,5.90
2019-05-13T00:25:44.475Z,4.83
2019-05-13T00:28:14.499Z,4.12
2019-05-13T00:30:44.523Z,4.10
2019-05-13T00:33:14.003Z,6.20
2019-05-13T00:35:44.218Z,4.30
2019-05-13T00:40:44.388Z,5.72
2019-05-13T00:43:14.248Z,4.77
2019-05-13T00:45:44.400Z,4.15
2019-05-13T00:48:14.589Z,2.62
2019-05-13T00:50:44.300Z,3.83
2019-05-13T00:53:13.553Z,3.12
2019-05-13T00:55:44.242Z,3.90
2019-05-13T00:58:14.338Z,2.35
2019-05-13T01:00:44.435Z,3.52
2019-05-13T01:03:14.041Z,4.08
2019-05-13T01:05:44.547Z,2.30
2019-05-13T01:08:15.437Z,2.20
2019-05-13T01:10:45.212Z,3.37
2019-05-13T01:13:14.492Z,2.20
2019-05-13T01:15:44.341Z,2.02
2019-05-13T01:18:14.303Z,4.05
2019-05-13T01:20:43.889Z,4.20
2019-05-13T01:23:14.161Z,3.05
2019-05-13T01:25:44.417Z,4.95
2019-05-13T01:28:14.310Z,1.92
2019-05-13T01:30:44.049Z,2.95
2019-05-13T01:33:14.455Z,2.27
2019-05-13T01:35:44.494Z,2.10
2019-05-13T01:38:13.760Z,3.30
2019-05-13T01:40:43.987Z,2.17
2019-05-13T01:43:14.359Z,3.58
2019-05-13T01:45:44.187Z,3.90
2019-05-13T01:48:14.110Z,4.33
2019-05-13T01:50:44.669Z,2.58
2019-05-13T01:53:14.512Z,1.93
2019-05-13T01:55:44.239Z,4.80
2019-05-13T01:58:14.577Z,2.67
2019-05-13T02:00:44.728Z,3.75
2019-05-13T02:03:14.536Z,2.12
2019-05-13T02:05:44.388Z,2.95
2019-05-13T02:08:14.610Z,2.42
2019-05-13T02:13:25.322Z,2.55
2019-05-13T02:15:55.441Z,2.25
2019-05-13T02:18:24.914Z,2.08
2019-05-13T02:20:55.343Z,3.02
2019-05-13T02:23:24.549Z,4.00
2019-05-13T02:25:54.237Z,3.65
2019-05-13T02:28:24.840Z,2.15
2019-05-13T02:30:55.756Z,2.22
2019-05-13T02:33:24.194Z,2.00
2019-05-13T02:35:53.419Z,2.45
2019-05-13T02:38:26.389Z,2.98
2019-05-13T02:43:23.683Z,2.47
2019-05-13T02:45:53.759Z,4.47
2019-05-13T02:48:23.589Z,3.92
2019-05-13T02:50:53.485Z,7.10
2019-05-13T02:53:23.802Z,6.20
2019-05-13T02:55:53.126Z,3.77
2019-05-13T02:58:24.296Z,3.20
2019-05-13T03:00:53.921Z,4.42
2019-05-13T03:03:23.735Z,3.75
2019-05-13T03:05:53.807Z,4.37
2019-05-13T03:10:55.607Z,2.35
2019-05-13T03:13:24.623Z,5.25
2019-05-13T03:16:06.879Z,4.22
2019-05-13T03:18:35.231Z,2.35
2019-05-13T03:21:04.868Z,3.87
2019-05-13T03:23:33.534Z,2.77
2019-05-13T03:26:03.343Z,5.28
2019-05-13T03:28:33.537Z,4.50
2019-05-13T03:31:06.307Z,2.40
2019-05-13T03:33:36.681Z,3.00
2019-05-13T03:36:06.658Z,3.55
2019-05-13T03:38:53.728Z,6.80
2019-05-13T03:41:08.409Z,4.37
2019-05-13T03:43:42.680Z,5.17
2019-05-13T03:46:12.332Z,6.22
2019-05-13T03:48:42.887Z,4.05
2019-05-13T03:51:13.533Z,2.47
2019-05-13T03:53:43.445Z,7.05
2019-05-13T03:56:13.210Z,3.60
2019-05-13T03:58:43.522Z,5.37
2019-05-13T04:01:13.537Z,4.42
2019-05-13T04:03:43.969Z,5.15
2019-05-13T04:06:13.984Z,4.67
2019-05-13T04:08:44.106Z,4.22
2019-05-13T04:11:14.528Z,7.67
2019-05-13T04:13:43.508Z,9.33
2019-05-13T04:16:13.370Z,3.40
2019-05-13T04:18:42.951Z,4.87
2019-05-13T04:21:12.985Z,4.35
2019-05-13T04:23:42.742Z,4.05
2019-05-13T04:26:14.697Z,7.80
2019-05-13T04:28:43.548Z,7.40
2019-05-13T04:31:14.456Z,7.20
2019-05-13T04:33:43.239Z,4.90
2019-05-13T04:36:13.273Z,4.37
2019-05-13T04:41:13.166Z,4.35
2019-05-13T04:43:43.549Z,6.33
2019-05-13T04:46:13.961Z,6.67
2019-05-13T04:48:44.721Z,4.30
2019-05-13T04:51:14.325Z,4.97
2019-05-13T04:53:43.119Z,7.28
2019-05-13T04:56:13.642Z,5.30
2019-05-13T05:01:59.428Z,6.95
2019-05-13T05:04:55.194Z,4.85
2019-05-13T05:07:48.235Z,5.87
2019-05-13T05:10:58.513Z,6.15
2019-05-13T05:14:02.681Z,5.75
2019-05-13T05:17:22.310Z,6.33
2019-05-13T05:20:06.134Z,4.60
2019-05-13T05:23:46.542Z,7.03
2019-05-13T05:27:15.345Z,7.08
2019-05-13T05:30:18.192Z,8.90
2019-05-13T05:33:32.033Z,9.70
2019-05-13T05:37:02.592Z,3.72
2019-05-13T05:39:31.644Z,9.35
2019-05-13T05:42:02.241Z,13.22
2019-05-13T05:44:32.428Z,10.53
2019-05-13T05:47:02.987Z,9.63
2019-05-13T05:49:32.370Z,6.90
2019-05-13T05:52:05.383Z,5.47
2019-05-13T05:54:36.058Z,5.50
2019-05-13T05:59:36.514Z,6.22
2019-05-13T06:02:06.414Z,14.43
2019-05-13T06:04:36.843Z,7.30
2019-05-13T06:07:06.244Z,6.20
2019-05-13T06:09:34.611Z,7.35
2019-05-13T06:12:04.764Z,5.85
2019-05-13T06:14:36.320Z,10.90
2019-05-13T06:17:05.444Z,8.47
2019-05-13T06:19:35.368Z,6.10
2019-05-13T06:22:04.149Z,5.97
2019-05-13T06:24:32.939Z,4.62
2019-05-13T06:27:03.750Z,9.95
2019-05-13T06:29:34.346Z,11.35
2019-05-13T06:32:18.180Z,3.98
2019-05-13T06:37:02.469Z,9.58
2019-05-13T06:39:31.826Z,6.80
2019-05-13T06:42:03.289Z,4.15
2019-05-13T06:47:02.489Z,8.98
2019-05-13T06:49:32.371Z,11.25
2019-05-13T06:52:02.135Z,10.75
2019-05-13T06:54:33.094Z,9.08
2019-05-13T06:57:05.245Z,6.42
2019-05-13T06:59:32.536Z,21.17
2019-05-13T07:02:02.245Z,6.15
2019-05-13T07:04:32.775Z,8.80
2019-05-13T07:07:16.246Z,9.48
2019-05-13T07:09:35.364Z,7.70
2019-05-13T07:12:04.428Z,8.78
2019-05-13T07:14:33.316Z,5.20
2019-05-13T07:19:32.720Z,6.35
2019-05-13T07:22:03.110Z,8.13
2019-05-13T07:24:32.482Z,10.58
2019-05-13T07:27:02.249Z,9.83
2019-05-13T07:29:32.520Z,7.67
2019-05-13T07:32:02.200Z,6.70
2019-05-13T07:34:33.769Z,14.20
2019-05-13T07:39:32.929Z,7.28
2019-05-13T07:42:05.370Z,7.87
2019-05-13T07:47:03.332Z,10.25
2019-05-13T07:52:01.792Z,13.20
2019-05-13T07:54:32.897Z,7.33
2019-05-13T07:59:31.768Z,18.00
2019-05-13T08:02:02.501Z,11.77
2019-05-13T08:04:33.562Z,11.22
2019-05-13T08:07:03.529Z,10.08
2019-05-13T08:09:32.414Z,9.00
2019-05-13T08:12:09.682Z,8.58
2019-05-13T08:14:32.949Z,11.00
2019-05-13T08:17:02.790Z,12.03
2019-05-13T08:19:33.925Z,7.92
2019-05-13T08:22:02.753Z,12.23
2019-05-13T08:24:31.656Z,8.38
2019-05-13T08:27:02.206Z,12.88
2019-05-13T08:29:32.863Z,15.65
2019-05-13T08:32:03.291Z,7.62
2019-05-13T08:34:33.115Z,15.72
2019-05-13T08:37:02.835Z,11.77
2019-05-13T08:39:35.918Z,11.50
2019-05-13T08:42:15.157Z,10.80
2019-05-13T08:44:33.700Z,16.65
2019-05-13T08:47:03.337Z,15.85
2019-05-13T08:49:32.754Z,15.63
2019-05-13T08:54:32.988Z,12.63
2019-05-13T08:57:02.933Z,17.67
2019-05-13T08:59:32.270Z,18.57
2019-05-13T09:02:03.127Z,18.77
2019-05-13T09:04:32.153Z,20.08
2019-05-13T09:07:02.388Z,12.98
2019-05-13T09:09:32.770Z,18.73
2019-05-13T09:14:32.539Z,18.05
2019-05-13T09:17:04.452Z,15.70
2019-05-13T09:19:34.671Z,11.00
2019-05-13T09:22:04.849Z,11.53
2019-05-13T09:24:37.614Z,18.70
2019-05-13T09:27:04.592Z,13.05
2019-05-13T09:29:33.392Z,14.98
2019-05-13T09:32:03.729Z,18.45
2019-05-13T09:34:33.043Z,15.23
2019-05-13T09:37:02.875Z,13.40
2019-05-13T09:39:32.663Z,12.10
2019-05-13T09:42:02.755Z,11.73
2019-05-13T09:44:32.751Z,13.90
2019-05-13T09:47:02.733Z,10.30
2019-05-13T09:52:02.813Z,18.73
2019-05-13T09:54:33.388Z,16.90
2019-05-13T09:57:02.422Z,13.85
2019-05-13T09:59:31.774Z,13.30
2019-05-13T10:02:02.859Z,12.73
2019-05-13T10:04:31.938Z,8.78
2019-05-13T10:07:02.317Z,14.15
2019-05-13T10:09:32.698Z,13.00
2019-05-13T10:12:04.128Z,17.95
2019-05-13T10:14:33.063Z,11.48
2019-05-13T10:17:06.009Z,11.80
2019-05-13T10:19:35.128Z,22.52
2019-05-13T10:22:05.077Z,12.47
2019-05-13T10:24:34.327Z,12.10
2019-05-13T10:27:02.988Z,13.98
2019-05-13T10:29:32.339Z,12.47
2019-05-13T10:32:04.403Z,16.55
2019-05-13T10:34:33.969Z,14.30
2019-05-13T10:37:02.835Z,12.30
2019-05-13T10:39:31.988Z,11.55
2019-05-13T10:42:03.119Z,11.95
2019-05-13T10:44:30.859Z,20.65
2019-05-13T10:47:00.060Z,11.90
2019-05-13T10:49:32.734Z,16.10
2019-05-13T10:52:02.866Z,13.48
2019-05-13T10:54:32.514Z,11.60
2019-05-13T10:57:04.392Z,11.88
2019-05-13T10:59:32.974Z,13.97
2019-05-13T11:02:02.414Z,11.93
2019-05-13T11:04:32.723Z,14.07
2019-05-13T11:07:03.029Z,19.23
2019-05-13T11:09:32.670Z,11.30
2019-05-13T11:12:02.209Z,12.13
2019-05-13T11:14:32.952Z,12.43
2019-05-13T11:17:01.914Z,9.65
2019-05-13T11:19:36.619Z,15.18
2019-05-13T11:22:04.094Z,16.75
2019-05-13T11:24:32.730Z,13.90
2019-05-13T11:27:02.780Z,15.88
2019-05-13T11:29:32.560Z,12.98
2019-05-13T11:32:02.917Z,14.80
2019-05-13T11:34:32.880Z,11.03
2019-05-13T11:37:03.645Z,11.25
2019-05-13T11:42:02.542Z,9.00
2019-05-13T11:44:32.160Z,8.78
2019-05-13T11:47:02.339Z,6.17
2019-05-13T11:49:31.845Z,6.35
2019-05-13T11:52:02.886Z,8.68
2019-05-13T11:54:34.051Z,7.90
2019-05-13T11:57:06.386Z,6.75
2019-05-13T12:02:04.587Z,5.70
2019-05-13T12:04:34.892Z,10.68
2019-05-13T12:07:03.841Z,6.92
2019-05-13T12:09:32.330Z,7.00
2019-05-13T12:12:03.302Z,6.42
2019-05-13T12:14:44.398Z,8.35
2019-05-13T12:17:04.199Z,9.33
2019-05-13T12:19:32.892Z,7.80
2019-05-13T12:22:03.003Z,6.58
2019-05-13T12:24:33.894Z,8.78
2019-05-13T12:27:03.870Z,12.25
2019-05-13T12:29:32.507Z,11.12
2019-05-13T12:32:03.294Z,9.68
2019-05-13T12:34:40.214Z,7.65
2019-05-13T12:39:33.457Z,13.55
2019-05-13T12:42:03.354Z,11.00
2019-05-13T12:44:32.492Z,7.92
2019-05-13T12:47:03.353Z,6.67
2019-05-13T12:49:36.476Z,9.23
2019-05-13T12:52:04.628Z,7.40
2019-05-13T12:57:03.633Z,8.48
2019-05-13T12:59:32.565Z,12.50
2019-05-13T13:02:03.219Z,11.83
2019-05-13T13:04:33.487Z,8.23
2019-05-13T13:07:02.830Z,9.38
2019-05-13T13:09:33.525Z,9.73
2019-05-13T13:12:02.414Z,8.75
2019-05-13T13:14:38.495Z,10.53
2019-05-13T13:17:04.672Z,8.25
2019-05-13T13:19:34.676Z,8.25
2019-05-13T13:22:07.819Z,9.45
2019-05-13T13:24:37.816Z,8.73
2019-05-13T13:29:43.095Z,5.35
2019-05-13T13:32:12.523Z,17.80
2019-05-13T13:34:43.554Z,5.58
2019-05-13T13:37:10.690Z,8.30
2019-05-13T13:39:43.135Z,13.75
2019-05-13T13:42:13.091Z,3.75
2019-05-13T13:44:42.877Z,6.87
2019-05-13T13:49:43.867Z,6.35
2019-05-13T13:52:15.938Z,2.45
2019-05-13T13:54:44.413Z,3.50
2019-05-13T13:57:13.915Z,4.87
2019-05-13T14:02:14.381Z,9.20
2019-05-13T14:04:43.412Z,8.68
2019-05-13T14:06:25.037Z,14.85
2019-05-13T14:06:32.825Z,11.03
2019-05-13T14:07:35.111Z,6.12
2019-05-13T14:09:42.697Z,1.92
2019-05-13T14:12:11.529Z,8.10
2019-05-13T14:14:41.450Z,4.35
2019-05-13T14:17:11.310Z,7.22
2019-05-13T14:19:42.258Z,2.90
2019-05-13T14:22:12.757Z,2.55
2019-05-13T14:24:43.457Z,5.45
2019-05-13T14:27:12.341Z,6.90
2019-05-13T14:29:46.126Z,3.75
2019-05-13T14:32:11.655Z,4.75
2019-05-13T14:34:42.101Z,5.03
2019-05-13T14:37:11.721Z,4.05
2019-05-13T14:39:40.798Z,8.40
2019-05-13T14:42:11.605Z,4.80
2019-05-13T14:47:08.617Z,8.35
2019-05-13T14:49:37.640Z,5.53
2019-05-13T14:52:06.382Z,5.75
2019-05-13T14:54:35.664Z,7.58
2019-05-13T14:57:04.407Z,4.08
2019-05-13T14:59:33.681Z,6.55
2019-05-13T15:02:03.566Z,4.75
2019-05-13T15:04:32.728Z,5.95
2019-05-13T15:07:02.713Z,5.55
2019-05-13T15:09:31.595Z,8.03
2019-05-13T15:12:02.034Z,4.58
2019-05-13T15:14:31.950Z,8.23
2019-05-13T15:17:06.299Z,7.30
2019-05-13T15:19:32.771Z,7.78
2019-05-13T15:22:03.214Z,7.30
2019-05-13T15:24:32.468Z,11.45
2019-05-13T15:27:03.467Z,4.37
2019-05-13T15:29:32.007Z,5.85
2019-05-13T15:32:02.079Z,4.33
2019-05-13T15:34:31.918Z,6.62
2019-05-13T15:37:02.272Z,4.83
2019-05-13T15:39:31.685Z,9.93
2019-05-13T15:42:02.022Z,11.08
2019-05-13T15:44:32.718Z,15.60
2019-05-13T15:47:07.206Z,9.25
2019-05-13T15:49:32.584Z,6.25
2019-05-13T15:52:01.899Z,8.85
2019-05-13T15:54:32.769Z,8.23
2019-05-13T15:59:31.054Z,7.53
2019-05-13T16:02:02.123Z,11.15
2019-05-13T16:04:31.843Z,7.03
2019-05-13T16:07:01.675Z,9.00
2019-05-13T16:09:31.534Z,4.78
2019-05-13T16:12:02.496Z,6.37
2019-05-13T16:14:31.759Z,7.97
2019-05-13T16:17:00.423Z,7.65
2019-05-13T16:19:32.716Z,7.72
2019-05-13T16:22:01.326Z,6.40
2019-05-13T16:24:32.097Z,8.93
2019-05-13T16:27:02.969Z,6.25
2019-05-13T16:29:33.698Z,7.17
2019-05-13T16:32:02.811Z,10.20
2019-05-13T16:34:32.089Z,8.40
2019-05-13T16:37:02.458Z,6.90
2019-05-13T16:39:31.840Z,7.85
2019-05-13T16:42:02.627Z,8.03
2019-05-13T16:44:31.985Z,7.90
2019-05-13T16:47:02.390Z,10.68
2019-05-13T16:49:31.852Z,8.63
2019-05-13T16:52:02.624Z,12.58
2019-05-13T16:54:32.805Z,8.30
2019-05-13T16:57:01.807Z,9.68
2019-05-13T16:59:31.623Z,10.30
2019-05-13T17:02:01.894Z,10.83
2019-05-13T17:04:32.167Z,11.85
2019-05-13T17:07:01.808Z,11.25
2019-05-13T17:09:32.355Z,15.38
2019-05-13T17:14:32.207Z,12.35
2019-05-13T17:17:01.353Z,12.90
2019-05-13T17:19:31.750Z,12.60
2019-05-13T17:22:02.622Z,11.20
2019-05-13T17:24:31.976Z,17.25
2019-05-13T17:27:02.352Z,13.58
2019-05-13T17:29:33.303Z,15.98
2019-05-13T17:32:02.654Z,11.63
2019-05-13T17:34:32.027Z,13.70
2019-05-13T17:37:02.683Z,12.78
2019-05-13T17:39:32.104Z,12.45
2019-05-13T17:42:02.004Z,14.25
2019-05-13T17:44:31.987Z,16.02
2019-05-13T17:47:01.688Z,16.93
2019-05-13T17:49:31.844Z,12.30
2019-05-13T17:52:02.462Z,12.15
2019-05-13T17:54:31.957Z,13.32
2019-05-13T17:57:02.619Z,8.98
2019-05-13T17:59:31.681Z,6.20
2019-05-13T18:02:02.547Z,7.72
2019-05-13T18:04:31.714Z,11.25
2019-05-13T18:07:01.581Z,12.95
2019-05-13T18:09:32.211Z,7.30
2019-05-13T18:12:02.485Z,9.08
2019-05-13T18:14:30.997Z,8.60
2019-05-13T18:17:02.166Z,13.08
2019-05-13T18:19:31.667Z,12.88
2019-05-13T18:22:02.182Z,9.80
2019-05-13T18:24:32.599Z,7.70
2019-05-13T18:27:02.572Z,9.80
2019-05-13T18:29:31.828Z,12.82
2019-05-13T18:32:03.469Z,9.38
2019-05-13T18:34:32.312Z,11.40
2019-05-13T18:37:02.741Z,17.73
2019-05-13T18:39:32.223Z,10.40
2019-05-13T18:42:02.796Z,12.23
2019-05-13T18:44:31.776Z,9.18
2019-05-13T18:47:01.843Z,8.58
2019-05-13T18:49:31.856Z,12.07
2019-05-13T18:52:01.309Z,6.97
2019-05-13T18:54:31.550Z,12.85
2019-05-13T18:57:02.365Z,11.08
2019-05-13T18:59:32.207Z,7.78
2019-05-13T19:02:01.664Z,9.15
2019-05-13T19:04:31.267Z,8.48
2019-05-13T19:07:02.573Z,13.28
2019-05-13T19:09:31.703Z,11.95
2019-05-13T19:12:01.586Z,20.77
2019-05-13T19:14:31.858Z,29.48
2019-05-13T19:17:01.125Z,29.80
2019-05-13T19:19:31.515Z,32.55
2019-05-13T19:22:02.167Z,34.73
2019-05-13T19:24:31.208Z,29.92
2019-05-13T19:27:02.105Z,30.65
2019-05-13T19:29:31.824Z,34.90
2019-05-13T19:32:02.112Z,38.83
2019-05-13T19:34:32.998Z,36.83
2019-05-13T19:37:02.313Z,40.60
2019-05-13T19:39:31.372Z,35.28
2019-05-13T19:41:59.933Z,33.70
2019-05-13T19:44:31.505Z,44.15
2019-05-13T19:47:01.939Z,46.65
2019-05-13T19:49:36.163Z,47.65
2019-05-13T19:52:02.225Z,48.48
2019-05-13T19:54:31.557Z,51.15
2019-05-13T19:57:01.972Z,52.20
2019-05-13T19:59:32.221Z,46.18
2019-05-13T20:02:01.665Z,52.60
2019-05-13T20:04:31.292Z,52.20
2019-05-13T20:07:02.398Z,56.70
2019-05-13T20:09:32.204Z,51.60
2019-05-13T20:12:02.747Z,50.40
2019-05-13T20:14:32.866Z,54.73
2019-05-13T20:17:02.923Z,47.33
2019-05-13T20:19:45.732Z,47.20
2019-05-13T20:22:02.647Z,49.35
2019-05-13T20:24:31.409Z,54.33
2019-05-13T20:27:01.550Z,44.70
2019-05-13T20:29:32.073Z,46.68
2019-05-13T20:32:01.835Z,45.17
2019-05-13T20:34:31.699Z,52.38
2019-05-13T20:37:02.745Z,40.65
2019-05-13T20:39:32.048Z,40.17
2019-05-13T20:42:01.644Z,44.75
2019-05-13T20:44:31.295Z,46.92
2019-05-13T20:47:01.524Z,45.05
2019-05-13T20:49:31.155Z,45.83
2019-05-13T20:51:59.963Z,46.23
2019-05-13T20:54:31.438Z,51.08
2019-05-13T20:57:01.966Z,46.63
2019-05-13T20:59:32.157Z,50.78
2019-05-13T21:02:02.378Z,53.52
2019-05-13T21:04:32.210Z,49.67
2019-05-13T21:07:02.110Z,49.30
2019-05-13T21:09:31.743Z,34.67
2019-05-13T21:12:01.794Z,27.67
2019-05-13T21:14:32.000Z,19.70
2019-05-13T21:17:02.028Z,19.23
2019-05-13T21:19:39.221Z,18.07
2019-05-13T21:22:00.811Z,15.78
2019-05-13T21:24:31.927Z,23.67
2019-05-13T21:27:01.974Z,21.45
2019-05-13T21:29:32.746Z,18.80
2019-05-13T21:32:01.766Z,20.62
2019-05-13T21:34:31.610Z,13.48
2019-05-13T21:37:02.335Z,14.35
2019-05-13T21:39:33.710Z,12.20
2019-05-13T21:42:02.572Z,13.22
2019-05-13T21:44:32.656Z,12.15
2019-05-13T21:47:02.181Z,9.17
2019-05-13T21:49:32.030Z,10.90
2019-05-13T21:52:00.432Z,11.03
2019-05-13T21:54:33.244Z,8.63
2019-05-13T21:57:02.031Z,10.75
2019-05-13T21:59:31.927Z,11.73
2019-05-13T22:02:01.721Z,15.18
2019-05-13T22:04:30.531Z,11.22
2019-05-13T22:07:01.323Z,9.63
2019-05-13T22:09:31.838Z,6.20
2019-05-13T22:12:01.869Z,9.23
2019-05-13T22:14:32.152Z,10.98
2019-05-13T22:17:02.014Z,9.58
2019-05-13T22:19:32.042Z,8.33
2019-05-13T22:22:02.546Z,7.85
2019-05-13T22:24:31.415Z,7.35
2019-05-13T22:27:01.955Z,8.25
2019-05-13T22:29:32.120Z,10.23
2019-05-13T22:32:02.684Z,8.10
2019-05-13T22:34:31.901Z,10.00
2019-05-13T22:37:02.474Z,9.75
2019-05-13T22:39:34.832Z,9.18
2019-05-13T22:42:03.775Z,14.65
2019-05-13T22:44:32.652Z,8.03
2019-05-13T22:47:02.440Z,6.33
2019-05-13T22:49:31.304Z,7.85
2019-05-13T22:51:59.967Z,6.80
2019-05-13T22:54:31.856Z,6.92
2019-05-13T22:59:32.048Z,8.28
2019-05-13T23:04:28.364Z,13.15
2019-05-13T23:06:57.036Z,9.78
2019-05-13T23:09:25.562Z,10.78
2019-05-13T23:11:54.131Z,11.65
2019-05-13T23:14:22.405Z,11.25
2019-05-13T23:16:50.876Z,8.35
2019-05-13T23:19:21.530Z,8.68
2019-05-13T23:21:51.340Z,9.63
2019-05-13T23:24:21.897Z,12.10
2019-05-13T23:26:51.548Z,11.18
2019-05-13T23:29:21.391Z,10.18
2019-05-13T23:31:52.065Z,10.10
2019-05-13T23:34:22.343Z,15.80
2019-05-13T23:36:51.675Z,12.35
2019-05-13T23:39:21.622Z,12.13
2019-05-13T23:41:52.336Z,10.13
2019-05-13T23:44:27.173Z,14.30
2019-05-13T23:49:21.096Z,14.70
2019-05-13T23:51:52.029Z,16.07
2019-05-13T23:56:50.148Z,11.97
2019-05-13T23:59:18.954Z,11.08
